Time;durP1;ratioP1;P1;durP2;ratioP2;P2;SDS_P1;SDS_P2;PMS_P1;PMS_P2;Temp;Humidity;BMP_temperature;BMP_pressure;BME280_temperature;BME280_humidity;BME280_pressure;Samples;Min_cycle;Max_cycle;Signal;HPM_P1;HPM_P2
2022/09/24 00:01:12;;;;;;;6.25;4.95;;;9.70;99.90;;;;;;5022540;28;20077;-37
2022/09/24 00:03:39;;;;;;;5.95;5.05;;;9.70;99.90;;;;;;5022980;28;20120;-34
2022/09/24 00:06:05;;;;;;;5.63;4.50;;;9.70;99.90;;;;;;5022259;28;20018;-33
2022/09/24 00:08:31;;;;;;;5.32;4.82;;;9.70;99.90;;;;;;5021509;28;20037;-35
2022/09/24 00:11:05;;;;;;;7.03;5.05;;;9.70;99.90;;;;;;5027391;28;20501;-35
2022/09/24 00:13:31;;;;;;;5.82;4.60;;;9.80;99.90;;;;;;5025180;28;20404;-33
2022/09/24 00:16:02;;;;;;;4.93;4.35;;;9.80;99.90;;;;;;5025054;28;20085;-33
2022/09/24 00:18:28;;;;;;;4.20;3.80;;;9.80;99.90;;;;;;5030103;28;20025;-35
2022/09/24 00:20:54;;;;;;;4.47;4.05;;;9.80;99.90;;;;;;5022687;28;20453;-34
2022/09/24 00:23:19;;;;;;;7.05;5.63;;;9.80;99.90;;;;;;5027627;28;20025;-32
2022/09/24 00:28:32;;;;;;;4.90;4.15;;;9.70;99.90;;;;;;5024219;28;20835;-33
2022/09/24 00:30:59;;;;;;;5.07;4.57;;;9.70;99.90;;;;;;5023537;28;20052;-33
2022/09/24 00:33:27;;;;;;;8.77;4.70;;;9.60;99.90;;;;;;5027161;28;20035;-33
2022/09/24 00:35:57;;;;;;;7.13;4.57;;;9.70;99.90;;;;;;5025028;28;20025;-34
2022/09/24 00:38:23;;;;;;;5.38;4.72;;;9.60;99.90;;;;;;5025069;28;20030;-33
2022/09/24 00:40:49;;;;;;;5.60;4.43;;;9.50;99.90;;;;;;5026869;28;20026;-32
2022/09/24 00:43:30;;;;;;;8.05;5.18;;;9.50;99.90;;;;;;5024528;28;20029;-33
2022/09/24 00:46:13;;;;;;;5.85;4.70;;;9.50;99.90;;;;;;5025358;28;20348;-33
2022/09/24 00:48:41;;;;;;;6.07;4.28;;;9.50;99.90;;;;;;5026888;28;20029;-35
2022/09/24 00:51:07;;;;;;;6.72;4.95;;;9.60;99.90;;;;;;5025187;28;20371;-34
2022/09/24 00:53:33;;;;;;;6.03;4.95;;;9.60;99.90;;;;;;5024824;28;20021;-33
2022/09/24 00:56:02;;;;;;;5.68;4.40;;;9.70;99.90;;;;;;5025697;28;20021;-33
2022/09/24 00:58:32;;;;;;;8.40;5.40;;;9.70;99.90;;;;;;5027809;28;20071;-35
2022/09/24 01:01:03;;;;;;;6.95;5.40;;;9.70;99.90;;;;;;5022886;28;20037;-41
2022/09/24 01:03:31;;;;;;;13.95;6.18;;;9.60;99.90;;;;;;5024907;28;20030;-41
2022/09/24 01:05:57;;;;;;;8.73;6.10;;;9.60;99.90;;;;;;5024263;28;20032;-42
2022/09/24 01:08:23;;;;;;;9.10;6.20;;;9.50;99.90;;;;;;5023903;28;20529;-41
2022/09/24 01:11:05;;;;;;;8.85;6.30;;;9.40;99.90;;;;;;5027211;28;20039;-40
2022/09/24 01:13:34;;;;;;;8.23;5.82;;;9.40;99.90;;;;;;5024014;28;20029;-40
2022/09/24 01:16:27;;;;;;;8.73;6.00;;;9.40;99.90;;;;;;5023588;28;20070;-41
2022/09/24 01:19:08;;;;;;;6.53;5.25;;;9.30;99.90;;;;;;5017917;28;20074;-42
2022/09/24 01:21:49;;;;;;;7.28;5.43;;;9.40;99.90;;;;;;5023159;28;20056;-37
2022/09/24 01:24:28;;;;;;;10.40;5.75;;;9.50;99.90;;;;;;5023016;28;20040;-41
2022/09/24 01:27:16;;;;;;;6.15;5.13;;;9.50;99.90;;;;;;5024470;28;20052;-38
2022/09/24 01:29:54;;;;;;;6.88;5.53;;;9.50;99.90;;;;;;5021221;28;20037;-42
2022/09/24 01:32:37;;;;;;;5.60;5.03;;;9.60;99.90;;;;;;5022875;28;20386;-42
2022/09/24 01:35:07;;;;;;;5.68;4.97;;;9.60;99.90;;;;;;5024074;28;21182;-43
2022/09/24 01:37:35;;;;;;;6.88;4.68;;;9.50;99.90;;;;;;5020871;28;20040;-40
2022/09/24 01:40:03;;;;;;;5.47;4.80;;;9.60;99.90;;;;;;5020807;28;20099;-41
2022/09/24 01:42:30;;;;;;;5.97;4.72;;;9.60;99.90;;;;;;5023990;28;20021;-40
2022/09/24 01:44:57;;;;;;;5.95;5.15;;;9.60;99.90;;;;;;5020685;28;20112;-42
2022/09/24 01:47:38;;;;;;;5.45;4.95;;;9.60;99.90;;;;;;5020868;28;20026;-43
2022/09/24 01:50:09;;;;;;;5.68;5.07;;;9.60;99.90;;;;;;5021926;28;20124;-40
2022/09/24 01:53:16;;;;;;;5.70;4.97;;;9.60;99.90;;;;;;5022890;28;20021;-40
2022/09/24 01:55:48;;;;;;;8.88;4.80;;;9.70;99.90;;;;;;5019153;28;20121;-40
2022/09/24 01:58:19;;;;;;;6.88;5.35;;;9.70;99.90;;;;;;5027277;28;20033;-40
2022/09/24 02:00:48;;;;;;;6.82;4.35;;;9.40;99.90;;;;;;5021329;28;20029;-42
2022/09/24 02:03:17;;;;;;;7.22;5.10;;;9.30;99.90;;;;;;5025613;28;20025;-42
2022/09/24 02:06:09;;;;;;;6.80;5.00;;;9.20;99.90;;;;;;5022121;28;20028;-42
2022/09/24 02:08:41;;;;;;;9.13;5.25;;;9.20;99.90;;;;;;5023711;28;20017;-42
2022/09/24 02:11:10;;;;;;;5.95;5.25;;;9.20;99.90;;;;;;5021632;28;20029;-41
2022/09/24 02:13:47;;;;;;;;;;;9.20;99.90;;;;;;5025260;28;20022;-42
2022/09/24 02:16:16;;;;;;;5.25;4.32;;;9.30;99.90;;;;;;5023476;28;19909;-42
2022/09/24 02:18:47;;;;;;;6.95;4.50;;;9.30;99.90;;;;;;5024515;28;20030;-39
2022/09/24 02:21:15;;;;;;;4.97;4.47;;;9.30;99.90;;;;;;5021805;28;20045;-42
2022/09/24 02:23:46;;;;;;;6.40;4.75;;;9.30;99.90;;;;;;5020598;28;20116;-42
2022/09/24 02:26:12;;;;;;;6.57;5.03;;;9.40;99.90;;;;;;5022111;28;20371;-39
2022/09/24 02:28:39;;;;;;;5.80;4.95;;;9.40;99.90;;;;;;5023672;28;20033;-42
2022/09/24 02:31:19;;;;;;;5.93;5.10;;;9.30;99.90;;;;;;5021393;28;20049;-42
2022/09/24 02:36:33;;;;;;;8.68;5.65;;;9.30;99.90;;;;;;5022360;28;20040;-41
2022/09/24 02:38:59;;;;;;;7.05;5.25;;;9.30;99.90;;;;;;5024387;28;20033;-40
2022/09/24 02:41:25;;;;;;;5.57;4.78;;;9.40;99.90;;;;;;5022984;28;21259;-41
2022/09/24 02:43:51;;;;;;;5.78;4.80;;;9.40;99.90;;;;;;5023757;28;20029;-41
2022/09/24 02:46:17;;;;;;;5.32;4.60;;;9.30;99.90;;;;;;5019612;28;20040;-42
2022/09/24 02:48:43;;;;;;;6.07;4.60;;;9.30;99.90;;;;;;5021368;28;20029;-41
2022/09/24 02:51:09;;;;;;;5.45;4.60;;;9.40;99.90;;;;;;5023815;28;20036;-43
2022/09/24 02:53:34;;;;;;;6.07;4.60;;;9.20;99.90;;;;;;5023882;28;20025;-42
2022/09/24 02:56:00;;;;;;;8.15;5.72;;;9.00;99.90;;;;;;5022967;28;20029;-40
2022/09/24 02:58:27;;;;;;;6.18;5.10;;;8.90;99.90;;;;;;5021143;28;20071;-40
2022/09/24 03:00:56;;;;;;;8.60;5.38;;;9.00;99.90;;;;;;5024404;28;20040;-41
2022/09/24 03:03:22;;;;;;;6.70;5.10;;;9.10;99.90;;;;;;5025370;28;20398;-41
2022/09/24 03:05:48;;;;;;;6.93;5.50;;;9.10;99.90;;;;;;5023476;28;20029;-42
2022/09/24 03:08:14;;;;;;;7.85;5.03;;;9.20;99.90;;;;;;5022994;28;20056;-40
2022/09/24 03:10:40;;;;;;;6.15;5.05;;;9.20;99.90;;;;;;5022419;28;20121;-42
2022/09/24 03:13:05;;;;;;;8.20;6.00;;;9.30;99.90;;;;;;5020312;28;20041;-42
2022/09/24 03:15:31;;;;;;;21.80;10.23;;;9.30;99.90;;;;;;5022857;28;20030;-40
2022/09/24 03:17:57;;;;;;;19.10;8.40;;;9.30;99.90;;;;;;5019364;28;20549;-41
2022/09/24 03:20:23;;;;;;;35.75;14.40;;;9.40;99.90;;;;;;5026362;28;20037;-40
2022/09/24 03:22:51;;;;;;;7.40;5.88;;;9.40;99.90;;;;;;5018718;28;20033;-37
2022/09/24 03:25:17;;;;;;;;;;;9.40;99.90;;;;;;5024537;28;20026;-42
2022/09/24 03:27:43;;;;;;;5.97;5.00;;;9.30;99.90;;;;;;5018034;28;20552;-40
2022/09/24 03:32:53;;;;;;;5.32;4.13;;;9.40;99.90;;;;;;5021965;28;20509;-39
2022/09/24 03:35:20;;;;;;;7.65;4.97;;;9.30;99.90;;;;;;5022212;28;20025;-38
2022/09/24 03:37:45;;;;;;;7.03;5.03;;;9.40;99.90;;;;;;5021164;28;20033;-42
2022/09/24 03:40:11;;;;;;;5.20;4.70;;;9.40;99.90;;;;;;5023212;28;20029;-40
2022/09/24 03:42:37;;;;;;;5.55;4.80;;;9.40;99.90;;;;;;5022874;28;20644;-42
2022/09/24 03:45:03;;;;;;;6.63;4.75;;;9.40;99.90;;;;;;5026984;28;20091;-43
2022/09/24 03:47:29;;;;;;;6.38;4.80;;;9.40;99.90;;;;;;5024188;28;20402;-39
2022/09/24 03:49:55;;;;;;;6.22;4.78;;;9.40;99.90;;;;;;5027157;28;20033;-41
2022/09/24 03:52:20;;;;;;;5.28;4.47;;;9.40;99.90;;;;;;5027061;28;20038;-42
2022/09/24 03:54:46;;;;;;;5.60;4.97;;;9.40;99.90;;;;;;5025606;28;20148;-42
2022/09/24 03:57:13;;;;;;;5.95;4.88;;;9.50;99.90;;;;;;5023309;28;20017;-42
2022/09/24 03:59:40;;;;;;;5.68;4.50;;;9.50;99.90;;;;;;5026449;28;20534;-42
2022/09/24 04:02:06;;;;;;;5.20;4.72;;;9.50;99.90;;;;;;5027193;28;20061;-42
2022/09/24 04:04:32;;;;;;;7.68;4.57;;;9.40;99.90;;;;;;5027887;28;20111;-42
2022/09/24 04:06:58;;;;;;;7.25;4.70;;;9.40;99.90;;;;;;5024581;28;20026;-42
2022/09/24 04:09:23;;;;;;;6.78;5.43;;;9.30;99.90;;;;;;5021913;28;20021;-37
2022/09/24 04:11:51;;;;;;;6.50;5.20;;;9.20;99.90;;;;;;5024297;28;20347;-42
2022/09/24 04:14:17;;;;;;;5.67;5.07;;;9.20;99.90;;;;;;5024116;28;20025;-41
2022/09/24 04:16:44;;;;;;;6.22;5.10;;;9.20;99.90;;;;;;5025146;28;20087;-39
2022/09/24 04:19:10;;;;;;;7.13;5.28;;;9.20;99.90;;;;;;5027689;28;20053;-42
2022/09/24 04:21:36;;;;;;;7.38;5.18;;;9.20;99.90;;;;;;5025119;28;20107;-42
2022/09/24 04:24:03;;;;;;;7.35;5.05;;;9.20;99.90;;;;;;5027159;28;20033;-42
2022/09/24 04:26:28;;;;;;;7.25;5.25;;;9.10;99.90;;;;;;5025604;28;20663;-40
2022/09/24 04:28:55;;;;;;;7.15;5.30;;;9.20;99.90;;;;;;5026248;28;20037;-41
2022/09/24 04:31:21;;;;;;;7.53;5.50;;;9.20;99.90;;;;;;5024759;28;20087;-38
2022/09/24 04:33:46;;;;;;;8.07;5.38;;;9.20;99.90;;;;;;5024819;28;20128;-39
2022/09/24 04:36:12;;;;;;;7.18;5.05;;;9.10;99.90;;;;;;5024573;28;20125;-39
2022/09/24 04:38:37;;;;;;;4.75;4.20;;;9.20;99.90;;;;;;5027334;28;20037;-42
2022/09/24 04:41:05;;;;;;;7.63;4.60;;;9.20;99.90;;;;;;5024606;28;20112;-41
2022/09/24 04:43:32;;;;;;;7.00;4.90;;;9.20;99.90;;;;;;5026557;28;20033;-41
2022/09/24 04:45:58;;;;;;;6.13;4.65;;;9.20;99.90;;;;;;5025158;28;20030;-42
2022/09/24 04:48:24;;;;;;;5.65;4.68;;;9.20;99.90;;;;;;5025588;28;20101;-41
2022/09/24 04:50:49;;;;;;;5.63;4.75;;;9.20;99.90;;;;;;5023964;28;20207;-42
2022/09/24 04:53:16;;;;;;;5.80;4.57;;;9.30;99.90;;;;;;5023851;28;20112;-41
2022/09/24 04:55:41;;;;;;;6.63;5.07;;;9.20;99.90;;;;;;5024814;28;20030;-41
2022/09/24 04:58:08;;;;;;;5.82;5.07;;;9.30;99.90;;;;;;5023228;28;20485;-39
2022/09/24 05:00:33;;;;;;;5.97;5.25;;;9.30;99.90;;;;;;5024880;28;20140;-40
2022/09/24 05:03:03;;;;;;;8.32;5.00;;;9.40;99.90;;;;;;5026345;28;20029;-39
2022/09/24 05:05:31;;;;;;;6.93;5.03;;;9.40;99.90;;;;;;5026056;28;20467;-42
2022/09/24 05:07:57;;;;;;;6.40;5.40;;;9.40;99.90;;;;;;5024561;28;20128;-42
2022/09/24 05:10:26;;;;;;;5.75;4.65;;;9.40;99.90;;;;;;5025213;28;20056;-42
2022/09/24 05:12:52;;;;;;;7.00;5.32;;;9.50;99.90;;;;;;5024241;28;20030;-38
2022/09/24 05:15:18;;;;;;;6.38;4.72;;;9.40;99.90;;;;;;5023360;28;20087;-39
2022/09/24 05:17:44;;;;;;;4.93;4.43;;;9.40;99.90;;;;;;5026023;28;20025;-42
2022/09/24 05:20:11;;;;;;;5.93;4.13;;;9.40;99.90;;;;;;5021307;28;20413;-41
2022/09/24 05:22:44;;;;;;;5.32;4.80;;;9.50;99.90;;;;;;5022643;28;20033;-43
2022/09/24 05:25:11;;;;;;;7.20;5.40;;;9.50;99.90;;;;;;5026457;28;20029;-42
2022/09/24 05:27:43;;;;;;;8.30;5.47;;;9.50;99.90;;;;;;5022840;28;20439;-42
2022/09/24 05:30:09;;;;;;;6.32;5.20;;;9.40;99.90;;;;;;5022630;28;20029;-41
2022/09/24 05:32:35;;;;;;;6.22;5.38;;;9.50;99.90;;;;;;5023620;28;20025;-42
2022/09/24 05:35:01;;;;;;;9.00;5.35;;;9.50;99.90;;;;;;5023067;28;20044;-40
2022/09/24 05:37:26;;;;;;;5.93;5.32;;;9.60;99.90;;;;;;5021924;28;20021;-43
2022/09/24 05:39:53;;;;;;;6.47;5.32;;;9.60;99.90;;;;;;5025096;28;20021;-42
2022/09/24 05:42:19;;;;;;;6.03;4.97;;;9.60;99.90;;;;;;5024051;28;20049;-42
2022/09/24 05:44:45;;;;;;;5.65;4.93;;;9.70;99.90;;;;;;5025917;28;20021;-42
2022/09/24 05:47:10;;;;;;;7.72;5.38;;;9.70;99.90;;;;;;5022377;28;20037;-42
2022/09/24 05:49:37;;;;;;;8.07;5.07;;;9.70;99.90;;;;;;5020244;28;20025;-41
2022/09/24 05:52:03;;;;;;;6.50;5.18;;;9.70;99.90;;;;;;5006271;28;20052;-42
2022/09/24 05:54:29;;;;;;;7.75;6.28;;;9.70;99.90;;;;;;5012640;28;20049;-37
2022/09/24 05:56:54;;;;;;;7.32;5.72;;;9.70;99.90;;;;;;5013720;28;20053;-42
2022/09/24 05:59:20;;;;;;;6.90;5.57;;;9.70;99.90;;;;;;5021151;28;20116;-41
2022/09/24 06:01:45;;;;;;;7.65;5.45;;;9.80;99.90;;;;;;5018869;28;20037;-41
2022/09/24 06:04:11;;;;;;;6.47;5.05;;;9.80;99.90;;;;;;5021735;28;20036;-42
2022/09/24 06:06:37;;;;;;;9.32;5.78;;;9.90;99.90;;;;;;5021568;28;20032;-42
2022/09/24 06:09:03;;;;;;;7.68;5.47;;;10.00;99.90;;;;;;5022616;28;20041;-43
2022/09/24 06:11:33;;;;;;;7.63;5.25;;;10.00;99.90;;;;;;4999604;28;20799;-37
2022/09/24 06:14:03;;;;;;;8.38;5.90;;;10.10;99.90;;;;;;5002893;28;20518;-37
2022/09/24 06:16:30;;;;;;;8.98;5.20;;;10.10;99.90;;;;;;5004114;28;20049;-37
2022/09/24 06:18:56;;;;;;;8.00;5.38;;;10.10;99.90;;;;;;5002587;28;20283;-41
2022/09/24 06:21:21;;;;;;;6.90;5.38;;;10.20;99.90;;;;;;5018209;28;20053;-41
2022/09/24 06:23:47;;;;;;;6.05;5.45;;;10.20;99.90;;;;;;5007312;28;20045;-42
2022/09/24 06:26:13;;;;;;;9.15;5.75;;;10.20;99.90;;;;;;5016916;28;20116;-41
2022/09/24 06:28:39;;;;;;;5.60;5.00;;;10.20;99.90;;;;;;5020936;28;20025;-42
2022/09/24 06:31:06;;;;;;;6.60;5.32;;;10.20;99.90;;;;;;5017867;28;20044;-41
2022/09/24 06:33:32;;;;;;;5.75;5.15;;;10.20;99.90;;;;;;5020760;28;20025;-42
2022/09/24 06:36:03;;;;;;;6.15;5.55;;;10.20;99.90;;;;;;5022867;28;20044;-41
2022/09/24 06:38:29;;;;;;;6.90;5.60;;;10.20;99.90;;;;;;5020400;28;20025;-42
2022/09/24 06:41:00;;;;;;;6.30;5.65;;;10.30;99.90;;;;;;5020190;28;20616;-37
2022/09/24 06:43:26;;;;;;;7.40;5.60;;;10.30;99.90;;;;;;5003774;28;20048;-43
2022/09/24 06:45:55;;;;;;;6.43;5.65;;;10.40;99.90;;;;;;5007278;28;20045;-42
2022/09/24 06:48:21;;;;;;;7.13;5.50;;;10.40;99.90;;;;;;5009861;28;21004;-41
2022/09/24 06:50:47;;;;;;;7.25;6.05;;;10.40;99.90;;;;;;5019106;28;20103;-39
2022/09/24 06:53:14;;;;;;;6.50;5.80;;;10.40;99.90;;;;;;5010617;28;20029;-40
2022/09/24 06:55:40;;;;;;;7.57;6.07;;;10.50;99.90;;;;;;5017270;28;20364;-40
2022/09/24 06:58:12;;;;;;;12.85;6.15;;;10.60;99.90;;;;;;5021741;28;20083;-42
2022/09/24 07:00:39;;;;;;;6.65;5.95;;;10.50;99.90;;;;;;5014263;28;20064;-41
2022/09/24 07:03:06;;;;;;;6.90;6.03;;;10.60;99.90;;;;;;5015022;28;20075;-41
2022/09/24 07:05:33;;;;;;;7.93;6.32;;;10.60;99.90;;;;;;5013089;28;20108;-42
2022/09/24 07:07:58;;;;;;;9.57;6.32;;;10.70;99.90;;;;;;5014029;28;20025;-41
2022/09/24 07:10:26;;;;;;;7.85;6.07;;;10.70;99.90;;;;;;5018471;28;20042;-37
2022/09/24 07:12:52;;;;;;;8.43;6.20;;;10.80;99.90;;;;;;5018830;28;20164;-39
2022/09/24 07:15:18;;;;;;;10.07;6.93;;;10.80;99.90;;;;;;5016512;28;20116;-36
2022/09/24 07:17:43;;;;;;;8.23;6.95;;;10.90;99.90;;;;;;5019993;28;20111;-41
2022/09/24 07:20:09;;;;;;;10.20;7.22;;;10.90;99.90;;;;;;5016172;28;20053;-41
2022/09/24 07:22:39;;;;;;;9.48;7.43;;;11.00;99.90;;;;;;5005271;28;20042;-39
2022/09/24 07:25:07;;;;;;;11.30;7.00;;;11.00;99.90;;;;;;5017334;28;20392;-42
2022/09/24 07:27:33;;;;;;;9.70;7.05;;;11.10;99.90;;;;;;5016898;28;20033;-42
2022/09/24 07:29:59;;;;;;;10.88;7.35;;;11.20;99.90;;;;;;5016497;28;20029;-36
2022/09/24 07:32:24;;;;;;;8.32;6.63;;;11.20;99.90;;;;;;5017560;28;20522;-39
2022/09/24 07:34:50;;;;;;;10.50;7.18;;;11.30;99.90;;;;;;5021255;28;20386;-42
2022/09/24 07:37:15;;;;;;;7.57;6.63;;;11.30;99.90;;;;;;5006611;28;20312;-40
2022/09/24 07:39:41;;;;;;;8.05;6.80;;;11.40;99.90;;;;;;5018793;28;20079;-41
2022/09/24 07:42:06;;;;;;;10.27;7.40;;;11.40;99.90;;;;;;5012363;28;20133;-36
2022/09/24 07:44:32;;;;;;;9.70;8.10;;;11.40;99.90;;;;;;5005753;28;20131;-41
2022/09/24 07:46:57;;;;;;;8.68;7.50;;;11.50;99.90;;;;;;5016965;28;20036;-39
2022/09/24 07:49:23;;;;;;;9.27;6.88;;;11.50;99.90;;;;;;5015333;28;20108;-40
2022/09/24 07:51:49;;;;;;;8.70;6.93;;;11.60;99.90;;;;;;5016440;28;20030;-39
2022/09/24 07:54:15;;;;;;;7.78;6.97;;;11.70;99.90;;;;;;5010929;28;20069;-42
2022/09/24 07:56:41;;;;;;;7.82;5.70;;;11.80;99.90;;;;;;5007513;28;20048;-39
2022/09/24 07:59:09;;;;;;;7.45;6.40;;;11.90;99.90;;;;;;5017985;28;20029;-41
2022/09/24 08:01:35;;;;;;;;;;;11.90;99.90;;;;;;5019100;28;20111;-40
2022/09/24 08:04:03;;;;;;;12.38;6.80;;;12.00;99.90;;;;;;5016040;28;20043;-41
2022/09/24 08:06:32;;;;;;;8.20;6.72;;;12.20;99.90;;;;;;5020666;28;20026;-41
2022/09/24 08:08:58;;;;;;;9.82;6.60;;;12.30;99.90;;;;;;4999839;28;20076;-36
2022/09/24 08:11:24;;;;;;;6.53;5.72;;;12.40;99.90;;;;;;5013652;28;20778;-42
2022/09/24 08:13:49;;;;;;;8.35;6.63;;;12.50;99.90;;;;;;5018356;28;20029;-37
2022/09/24 08:16:16;;;;;;;11.65;7.05;;;12.60;99.90;;;;;;5016223;28;20474;-40
2022/09/24 08:18:42;;;;;;;7.53;6.03;;;12.80;99.90;;;;;;5018833;28;20022;-40
2022/09/24 08:21:10;;;;;;;7.32;6.53;;;12.90;99.90;;;;;;5014147;28;20057;-37
2022/09/24 08:23:36;;;;;;;;;;;13.00;99.90;;;;;;5010157;28;20033;-41
2022/09/24 08:26:02;;;;;;;7.70;5.90;;;13.10;99.90;;;;;;5014929;28;19936;-40
2022/09/24 08:28:28;;;;;;;8.23;5.88;;;13.30;99.90;;;;;;5015767;28;20037;-36
2022/09/24 08:31:02;;;;;;;9.48;6.90;;;13.30;99.90;;;;;;5019052;28;20050;-40
2022/09/24 08:33:30;;;;;;;9.13;6.30;;;13.50;99.90;;;;;;5013224;28;20065;-42
2022/09/24 08:35:59;;;;;;;5.43;3.83;;;13.60;99.90;;;;;;5017832;28;20092;-41
2022/09/24 08:38:25;;;;;;;6.82;5.50;;;13.70;99.90;;;;;;5019977;28;20113;-42
2022/09/24 08:41:11;;;;;;;10.95;6.10;;;13.70;99.90;;;;;;5019275;28;20338;-39
2022/09/24 08:44:00;;;;;;;7.85;6.45;;;13.80;99.90;;;;;;5021789;28;20034;-42
2022/09/24 08:49:26;;;;;;;7.72;5.63;;;13.80;99.90;;;;;;5018623;28;20044;-42
2022/09/24 08:52:06;;;;;;;7.05;5.43;;;13.80;99.90;;;;;;5022939;28;20099;-40
2022/09/24 08:54:35;;;;;;;6.80;5.82;;;13.70;99.90;;;;;;5011091;28;20025;-42
2022/09/24 08:57:10;;;;;;;7.55;6.22;;;13.70;99.90;;;;;;5015709;28;20117;-41
2022/09/24 08:59:36;;;;;;;8.35;5.63;;;13.60;99.90;;;;;;5018096;28;20696;-38
2022/09/24 09:02:16;;;;;;;8.82;5.80;;;13.50;99.90;;;;;;5022441;28;20111;-42
2022/09/24 09:04:52;;;;;;;7.18;6.35;;;13.50;99.90;;;;;;5017518;28;20166;-41
2022/09/24 09:07:23;;;;;;;7.18;5.82;;;13.40;99.90;;;;;;5022586;28;20498;-40
2022/09/24 09:10:02;;;;;;;9.93;6.30;;;13.40;99.90;;;;;;5022428;28;20025;-40
2022/09/24 09:12:37;;;;;;;11.00;6.63;;;13.40;99.90;;;;;;5025423;28;20032;-42
2022/09/24 09:15:18;;;;;;;13.95;6.60;;;13.30;99.90;;;;;;5017962;28;20052;-42
2022/09/24 09:17:46;;;;;;;8.57;6.13;;;13.30;99.90;;;;;;5022141;28;20018;-36
2022/09/24 09:20:18;;;;;;;15.45;6.20;;;13.40;99.90;;;;;;5025436;28;20053;-42
2022/09/24 09:22:47;;;;;;;9.50;5.63;;;13.30;99.90;;;;;;5023504;28;20037;-40
2022/09/24 09:25:27;;;;;;;7.05;4.65;;;13.30;99.90;;;;;;5014444;28;20071;-40
2022/09/24 09:28:02;;;;;;;10.02;6.60;;;13.30;99.90;;;;;;5023405;28;20034;-41
2022/09/24 09:30:42;;;;;;;9.88;5.80;;;13.30;99.90;;;;;;5021541;28;20038;-41
2022/09/24 09:33:27;;;;;;;8.60;5.50;;;13.30;99.90;;;;;;5022394;28;20586;-41
2022/09/24 09:36:04;;;;;;;7.10;5.75;;;13.30;99.90;;;;;;5021574;28;20082;-42
2022/09/24 09:38:50;;;;;;;5.85;4.72;;;13.30;99.90;;;;;;5016122;28;20105;-43
2022/09/24 09:41:33;;;;;;;6.53;5.47;;;13.30;99.90;;;;;;5023995;28;20131;-41
2022/09/24 09:44:08;;;;;;;9.65;6.30;;;13.30;99.90;;;;;;5016684;28;20053;-42
2022/09/24 09:46:39;;;;;;;8.45;5.72;;;13.40;99.90;;;;;;5018000;28;21170;-42
2022/09/24 09:49:06;;;;;;;7.93;5.75;;;13.40;99.90;;;;;;5025138;28;20585;-40
2022/09/24 09:51:39;;;;;;;5.87;5.27;;;13.40;99.90;;;;;;5017549;28;20021;-39
2022/09/24 09:54:05;;;;;;;6.88;5.47;;;13.40;99.90;;;;;;5011658;28;20115;-36
2022/09/24 09:56:40;;;;;;;6.15;5.50;;;13.40;99.90;;;;;;5019004;28;20120;-41
2022/09/24 09:59:11;;;;;;;8.65;5.55;;;13.40;99.90;;;;;;5018170;28;20995;-38
2022/09/24 10:01:42;;;;;;;5.82;5.20;;;13.50;99.90;;;;;;5022569;28;20490;-40
2022/09/24 10:04:36;;;;;;;6.10;5.35;;;13.40;99.90;;;;;;5014964;28;20029;-42
2022/09/24 10:07:16;;;;;;;6.55;5.40;;;13.50;99.90;;;;;;5008920;28;20147;-38
2022/09/24 10:09:43;;;;;;;8.77;5.75;;;13.50;99.90;;;;;;5024612;28;20100;-42
2022/09/24 10:12:18;;;;;;;8.37;5.47;;;13.50;99.90;;;;;;5014903;28;20112;-41
2022/09/24 10:14:59;;;;;;;10.52;5.65;;;13.60;99.90;;;;;;5008771;28;20655;-39
2022/09/24 10:17:29;;;;;;;8.43;5.88;;;13.60;99.90;;;;;;5022386;28;20482;-41
2022/09/24 10:19:55;;;;;;;9.60;6.43;;;13.70;99.90;;;;;;5017645;28;20372;-40
2022/09/24 10:22:26;;;;;;;11.48;6.47;;;13.70;99.90;;;;;;5018937;28;20554;-40
2022/09/24 10:24:54;;;;;;;8.95;6.15;;;13.70;99.90;;;;;;5013555;28;20044;-39
2022/09/24 10:27:29;;;;;;;6.82;6.07;;;13.80;99.90;;;;;;5014232;28;20098;-38
2022/09/24 10:32:40;;;;;;;8.57;6.35;;;13.90;99.90;;;;;;5013747;28;20048;-38
2022/09/24 10:35:20;;;;;;;10.40;6.25;;;13.90;99.90;;;;;;5019436;28;20033;-40
2022/09/24 10:37:54;;;;;;;17.38;8.18;;;13.90;99.90;;;;;;5021257;28;20029;-39
2022/09/24 10:40:24;;;;;;;21.35;8.35;;;13.90;99.90;;;;;;5020868;28;20033;-42
2022/09/24 10:42:58;;;;;;;10.82;6.22;;;13.90;99.90;;;;;;5021575;28;20026;-42
2022/09/24 10:45:33;;;;;;;9.23;6.70;;;13.90;99.90;;;;;;5015489;28;21441;-38
2022/09/24 10:47:59;;;;;;;12.63;7.07;;;13.90;99.90;;;;;;5022752;28;20036;-40
2022/09/24 10:50:42;;;;;;;8.57;6.63;;;13.90;99.90;;;;;;5020444;28;20479;-39
2022/09/24 10:53:33;;;;;;;10.55;6.70;;;13.90;99.90;;;;;;5013706;28;20763;-43
2022/09/24 10:56:11;;;;;;;9.45;6.15;;;13.90;99.90;;;;;;5016803;28;20036;-38
2022/09/24 10:59:21;;;;;;;8.75;6.28;;;13.90;99.90;;;;;;5014990;28;20037;-40
2022/09/24 11:02:03;;;;;;;8.25;6.22;;;13.90;99.90;;;;;;5014108;28;20083;-37
2022/09/24 11:04:39;;;;;;;8.32;5.90;;;13.90;99.90;;;;;;5016638;28;20029;-41
2022/09/24 11:07:37;;;;;;;7.53;6.28;;;14.00;99.90;;;;;;5020299;28;20910;-41
2022/09/24 11:10:09;;;;;;;8.18;6.22;;;14.10;99.90;;;;;;5019833;28;20021;-38
2022/09/24 11:13:16;;;;;;;14.45;7.45;;;14.10;99.90;;;;;;5023996;28;20036;-42
2022/09/24 11:16:08;;;;;;;12.85;6.38;;;14.10;99.90;;;;;;5007210;28;20037;-42
2022/09/24 11:18:44;;;;;;;11.40;6.32;;;14.20;99.90;;;;;;5020310;28;20498;-43
2022/09/24 11:21:38;;;;;;;8.13;6.30;;;14.20;99.90;;;;;;5020081;28;20048;-42
2022/09/24 11:24:37;;;;;;;7.68;5.32;;;14.20;99.90;;;;;;5019147;28;20498;-41
2022/09/24 11:27:35;;;;;;;9.05;5.70;;;14.30;99.90;;;;;;5018702;28;20139;-40
2022/09/24 11:30:16;;;;;;;7.47;5.17;;;14.30;99.90;;;;;;5020723;28;20394;-40
2022/09/24 11:33:07;;;;;;;8.25;5.97;;;14.30;99.90;;;;;;5016819;28;20034;-41
2022/09/24 11:35:55;;;;;;;8.65;5.38;;;14.40;99.90;;;;;;5021620;28;20025;-34
2022/09/24 11:38:28;;;;;;;7.63;5.47;;;14.40;99.90;;;;;;5015004;28;20861;-42
2022/09/24 11:41:31;;;;;;;7.35;5.22;;;14.40;99.90;;;;;;5019220;28;20306;-39
2022/09/24 11:44:17;;;;;;;6.28;5.32;;;14.50;99.90;;;;;;5012417;28;20574;-42
2022/09/24 11:46:58;;;;;;;6.78;5.60;;;14.50;99.90;;;;;;5012025;28;20588;-39
2022/09/24 11:49:48;;;;;;;7.90;6.28;;;14.50;99.90;;;;;;5021774;28;20059;-41
2022/09/24 11:52:42;;;;;;;7.13;5.28;;;14.40;99.90;;;;;;5017699;28;20115;-41
2022/09/24 11:55:39;;;;;;;7.95;6.20;;;14.40;99.90;;;;;;5011063;28;20073;-40
2022/09/24 11:58:26;;;;;;;8.60;6.07;;;14.30;99.90;;;;;;5013706;28;20410;-37
2022/09/24 12:01:02;;;;;;;6.65;5.57;;;14.30;99.90;;;;;;5012762;28;20048;-41
2022/09/24 12:03:37;;;;;;;6.50;5.15;;;14.40;99.90;;;;;;5016217;28;20037;-36
2022/09/24 12:06:08;;;;;;;7.82;5.53;;;14.40;99.90;;;;;;5020957;28;20078;-42
2022/09/24 12:09:02;;;;;;;6.93;5.90;;;14.40;99.90;;;;;;5015324;28;20039;-36
2022/09/24 12:11:50;;;;;;;7.70;6.15;;;14.50;99.90;;;;;;5015374;28;20122;-41
2022/09/24 12:14:24;;;;;;;8.45;6.82;;;14.40;99.90;;;;;;5016571;28;20025;-39
2022/09/24 12:16:56;;;;;;;8.27;6.20;;;14.40;99.90;;;;;;5015376;28;20029;-37
2022/09/24 12:19:38;;;;;;;49.85;23.85;;;14.40;99.90;;;;;;5015420;28;20036;-41
2022/09/24 12:22:04;;;;;;;9.52;7.38;;;14.50;99.90;;;;;;5023952;28;20040;-42
2022/09/24 12:24:41;;;;;;;8.02;6.70;;;14.50;99.90;;;;;;5019726;28;20056;-42
2022/09/24 12:27:16;;;;;;;9.93;6.75;;;14.50;99.90;;;;;;5023059;28;20376;-40
2022/09/24 12:33:12;;;;;;;8.68;6.00;;;14.60;99.90;;;;;;5022002;28;20100;-42
2022/09/24 12:35:54;;;;;;;7.45;5.78;;;14.60;99.90;;;;;;5017608;28;20114;-42
2022/09/24 12:38:29;;;;;;;7.97;5.55;;;14.50;99.90;;;;;;5021290;28;20136;-40
2022/09/24 12:41:04;;;;;;;8.55;5.22;;;14.50;99.90;;;;;;5020504;28;20126;-40
2022/09/24 12:44:00;;;;;;;7.00;4.85;;;14.50;99.90;;;;;;5021750;28;20041;-37
2022/09/24 12:46:38;;;;;;;8.82;5.65;;;14.40;99.90;;;;;;5022018;28;20475;-41
2022/09/24 12:49:10;;;;;;;7.60;5.57;;;14.50;99.90;;;;;;5022203;28;20061;-43
2022/09/24 12:51:37;;;;;;;7.25;5.22;;;14.50;99.90;;;;;;5022177;28;20554;-40
2022/09/24 12:54:27;;;;;;;9.13;5.45;;;14.60;99.90;;;;;;5019271;28;20017;-42
2022/09/24 12:57:18;;;;;;;7.85;5.32;;;14.70;99.90;;;;;;5016523;28;20018;-39
2022/09/24 13:00:25;;;;;;;6.97;5.07;;;14.60;99.90;;;;;;5012172;28;20144;-37
2022/09/24 13:02:51;;;;;;;6.88;5.18;;;14.50;99.90;;;;;;5005685;28;20052;-42
2022/09/24 13:05:25;;;;;;;8.73;4.80;;;14.50;99.90;;;;;;5019536;28;20461;-42
2022/09/24 13:08:15;;;;;;;6.57;5.03;;;14.60;99.90;;;;;;5007997;28;20124;-40
2022/09/24 13:10:59;;;;;;;4.22;3.72;;;14.50;99.90;;;;;;5015957;28;20068;-39
2022/09/24 13:13:31;;;;;;;5.13;4.05;;;14.50;99.90;;;;;;5018956;28;20033;-36
2022/09/24 13:16:06;;;;;;;4.65;3.70;;;14.40;99.90;;;;;;5014355;28;20033;-41
2022/09/24 13:18:36;;;;;;;5.30;4.20;;;14.40;99.90;;;;;;5017521;28;20022;-40
2022/09/24 13:21:17;;;;;;;4.50;4.10;;;14.40;99.90;;;;;;5018810;28;20074;-39
2022/09/24 13:23:45;;;;;;;6.03;4.00;;;14.60;99.90;;;;;;5015253;28;20043;-42
2022/09/24 13:26:33;;;;;;;4.38;3.67;;;14.70;99.90;;;;;;5017823;28;20026;-36
2022/09/24 13:29:02;;;;;;;6.97;4.30;;;14.80;99.90;;;;;;5019430;28;20042;-37
2022/09/24 13:31:27;;;;;;;4.93;3.95;;;15.00;99.90;;;;;;5022849;28;20503;-43